createdAt,value
2019-06-11T00:01:32.201Z,22.47
2019-06-11T00:04:03.465Z,20.43
2019-06-11T00:06:32.260Z,21.27
2019-06-11T00:09:03.805Z,19.97
2019-06-11T00:11:32.959Z,20.20
2019-06-11T00:14:04.782Z,22.37
2019-06-11T00:16:33.587Z,21.53
2019-06-11T00:19:04.861Z,22.47
2019-06-11T00:21:34.224Z,17.50
2019-06-11T00:24:06.175Z,19.10
2019-06-11T00:26:34.903Z,20.33
2019-06-11T00:29:06.673Z,21.97
2019-06-11T00:31:35.588Z,19.83
2019-06-11T00:34:07.534Z,16.77
2019-06-11T00:36:36.231Z,18.27
2019-06-11T00:39:07.700Z,19.97
2019-06-11T00:41:58.041Z,20.53
2019-06-11T00:44:27.500Z,20.07
2019-06-11T00:46:58.373Z,19.80
2019-06-11T00:49:28.007Z,20.03
2019-06-11T00:51:57.461Z,19.97
2019-06-11T00:54:26.900Z,21.20
2019-06-11T00:56:57.318Z,20.10
2019-06-11T00:59:26.895Z,17.53
2019-06-11T01:01:57.622Z,14.03
2019-06-11T01:04:27.261Z,18.87
2019-06-11T01:06:56.707Z,20.53
2019-06-11T01:09:26.161Z,16.87
2019-06-11T01:11:55.619Z,22.17
2019-06-11T01:14:25.719Z,22.30
2019-06-11T01:16:55.249Z,20.33
2019-06-11T01:19:24.784Z,20.97
2019-06-11T01:21:54.235Z,17.40
2019-06-11T01:24:23.670Z,16.23
2019-06-11T01:26:53.150Z,17.53
2019-06-11T01:29:23.207Z,16.30
2019-06-11T01:31:53.377Z,20.00
2019-06-11T01:34:22.943Z,21.67
2019-06-11T01:36:52.589Z,19.00
2019-06-11T01:39:22.436Z,22.00
2019-06-11T01:41:53.122Z,20.97
2019-06-11T01:44:23.197Z,18.73
2019-06-11T01:46:52.944Z,22.00
2019-06-11T01:49:22.616Z,20.70
2019-06-11T01:51:52.745Z,17.80
2019-06-11T01:54:22.698Z,17.33
2019-06-11T01:56:52.643Z,16.47
2019-06-11T01:59:23.172Z,20.37
2019-06-11T02:01:52.800Z,21.33
2019-06-11T02:04:23.017Z,21.63
2019-06-11T02:06:53.195Z,22.30
2019-06-11T02:09:22.967Z,21.90
2019-06-11T02:11:52.572Z,21.20
2019-06-11T02:14:22.776Z,19.40
2019-06-11T02:16:53.253Z,20.93
2019-06-11T02:19:24.278Z,21.03
2019-06-11T02:21:54.125Z,22.33
2019-06-11T02:24:23.577Z,21.83
2019-06-11T02:26:53.440Z,29.03
2019-06-11T02:29:22.894Z,21.73
2019-06-11T02:31:53.899Z,21.20
2019-06-11T02:34:58.089Z,24.23
2019-06-11T02:36:54.739Z,22.77
2019-06-11T02:39:28.385Z,21.97
2019-06-11T02:41:55.413Z,21.17
2019-06-11T02:44:29.142Z,23.03
2019-06-11T02:46:56.039Z,26.50
2019-06-11T02:49:28.025Z,30.80
2019-06-11T02:51:57.548Z,24.10
2019-06-11T02:54:31.271Z,22.90
2019-06-11T02:57:01.121Z,24.93
2019-06-11T02:59:33.844Z,20.73
2019-06-11T03:02:01.533Z,22.60
2019-06-11T03:04:50.930Z,23.37
2019-06-11T03:07:04.501Z,26.73
2019-06-11T03:09:36.962Z,23.87
2019-06-11T03:12:06.795Z,21.50
2019-06-11T03:14:42.307Z,26.10
2019-06-11T03:17:16.349Z,22.57
2019-06-11T03:19:51.952Z,21.23
2019-06-11T03:22:27.226Z,20.07
2019-06-11T03:24:51.972Z,21.63
2019-06-11T03:27:27.203Z,25.17
2019-06-11T03:29:52.933Z,22.27
2019-06-11T03:33:11.583Z,23.63
2019-06-11T03:38:06.135Z,23.77
2019-06-11T03:40:00.663Z,23.20
2019-06-11T03:42:34.765Z,22.20
2019-06-11T03:45:01.686Z,24.07
2019-06-11T03:47:34.822Z,24.17
2019-06-11T03:50:02.212Z,23.20
2019-06-11T03:52:34.014Z,22.60
2019-06-11T03:55:04.000Z,25.30
2019-06-11T03:57:34.842Z,23.73
2019-06-11T04:00:15.501Z,21.73
2019-06-11T04:02:41.807Z,22.43
2019-06-11T04:05:11.351Z,21.30
2019-06-11T04:07:51.306Z,23.10
2019-06-11T04:10:15.666Z,25.43
2019-06-11T04:12:44.302Z,23.13
2019-06-11T04:15:14.560Z,22.83
2019-06-11T04:17:53.631Z,24.43
2019-06-11T04:20:17.126Z,20.80
2019-06-11T04:22:51.269Z,19.47
2019-06-11T04:25:21.363Z,28.10
2019-06-11T04:27:51.357Z,21.13
2019-06-11T04:30:37.123Z,21.20
2019-06-11T04:32:52.206Z,22.70
2019-06-11T04:35:25.226Z,20.83
2019-06-11T04:38:05.952Z,21.53
2019-06-11T04:40:29.215Z,21.40
2019-06-11T04:42:55.210Z,19.97
2019-06-11T04:45:43.971Z,19.43
2019-06-11T04:48:18.791Z,22.90
2019-06-11T04:50:47.187Z,20.17
2019-06-11T04:53:17.912Z,20.33
2019-06-11T04:55:51.149Z,20.30
2019-06-11T04:58:29.686Z,18.93
2019-06-11T05:05:57.121Z,19.60
2019-06-11T05:08:34.704Z,17.43
2019-06-11T05:11:01.457Z,19.43
2019-06-11T05:13:35.621Z,16.90
2019-06-11T05:16:01.699Z,21.33
2019-06-11T05:18:36.632Z,16.50
2019-06-11T05:21:02.645Z,16.40
2019-06-11T05:23:37.395Z,18.70
2019-06-11T05:26:09.518Z,19.50
2019-06-11T05:28:35.955Z,19.83
2019-06-11T05:31:05.788Z,17.30
2019-06-11T05:33:36.715Z,17.27
2019-06-11T05:36:06.436Z,20.33
2019-06-11T05:38:44.974Z,18.10
2019-06-11T05:41:07.055Z,17.90
2019-06-11T05:43:36.914Z,15.87
2019-06-11T05:46:06.365Z,17.23
2019-06-11T05:48:35.825Z,17.73
2019-06-11T05:51:05.281Z,17.77
2019-06-11T05:53:35.440Z,17.17
2019-06-11T05:56:05.060Z,18.43
2019-06-11T05:58:37.320Z,18.20
2019-06-11T06:01:28.402Z,17.90
2019-06-11T06:03:40.460Z,15.27
2019-06-11T06:06:11.356Z,16.87
2019-06-11T06:08:40.747Z,21.63
2019-06-11T06:11:10.886Z,15.30
2019-06-11T06:13:41.883Z,17.03
2019-06-11T06:16:11.548Z,18.47
2019-06-11T06:18:41.327Z,15.97
2019-06-11T06:21:10.899Z,20.60
2019-06-11T06:23:40.955Z,15.63
2019-06-11T06:26:12.692Z,17.20
2019-06-11T06:28:43.838Z,18.10
2019-06-11T06:31:12.938Z,20.90
2019-06-11T06:33:42.369Z,15.80
2019-06-11T06:36:11.824Z,14.60
2019-06-11T06:38:48.720Z,15.67
2019-06-11T06:41:12.629Z,16.20
2019-06-11T06:43:42.113Z,16.23
2019-06-11T06:46:11.567Z,15.27
2019-06-11T06:48:41.636Z,17.90
2019-06-11T06:51:11.827Z,16.30
2019-06-11T06:53:41.488Z,19.80
2019-06-11T06:56:10.969Z,15.20
2019-06-11T06:58:41.316Z,28.60
2019-06-11T07:01:11.475Z,14.63
2019-06-11T07:03:44.431Z,15.97
2019-06-11T07:06:12.614Z,15.30
2019-06-11T07:09:00.319Z,15.37
2019-06-11T07:11:13.211Z,14.67
2019-06-11T07:13:42.813Z,19.03
2019-06-11T07:16:12.229Z,15.83
2019-06-11T07:18:50.579Z,14.30
2019-06-11T07:21:12.867Z,13.80
2019-06-11T07:23:46.137Z,15.20
2019-06-11T07:26:13.477Z,12.90
2019-06-11T07:28:45.298Z,15.67
2019-06-11T07:31:14.140Z,13.80
2019-06-11T07:33:45.978Z,12.77
2019-06-11T07:36:14.728Z,14.50
2019-06-11T07:38:46.345Z,15.00
2019-06-11T07:41:15.402Z,13.60
2019-06-11T07:43:48.180Z,13.73
2019-06-11T07:46:32.689Z,12.97
2019-06-11T07:48:56.214Z,19.80
2019-06-11T07:51:21.760Z,13.30
2019-06-11T07:53:51.853Z,12.60
2019-06-11T07:56:21.196Z,12.90
2019-06-11T07:58:52.206Z,11.77
2019-06-11T08:01:21.982Z,14.20
2019-06-11T08:03:51.634Z,12.57
2019-06-11T08:06:22.536Z,18.10
2019-06-11T08:08:55.293Z,18.70
2019-06-11T08:11:23.653Z,12.63
2019-06-11T08:16:24.341Z,12.27
2019-06-11T08:19:02.207Z,12.60
2019-06-11T08:19:32.454Z,11.00
2019-06-11T08:21:47.829Z,13.53
2019-06-11T08:24:09.976Z,12.93
2019-06-11T08:29:01.406Z,13.30
2019-06-11T08:31:30.862Z,11.67
2019-06-11T08:34:02.837Z,16.73
2019-06-11T08:36:31.488Z,11.13
2019-06-11T08:39:01.329Z,14.17
2019-06-11T08:41:30.846Z,13.30
2019-06-11T08:44:01.049Z,13.00
2019-06-11T08:46:31.083Z,20.47
2019-06-11T08:49:00.976Z,14.33
2019-06-11T08:51:30.763Z,14.17
2019-06-11T08:54:00.428Z,11.40
2019-06-11T08:56:31.227Z,18.50
2019-06-11T08:59:01.154Z,13.73
2019-06-11T09:01:31.064Z,12.67
2019-06-11T09:04:01.065Z,12.20
2019-06-11T09:06:30.590Z,13.83
2019-06-11T09:09:00.870Z,11.70
2019-06-11T09:11:30.559Z,13.87
2019-06-11T09:14:10.215Z,11.63
2019-06-11T09:16:42.656Z,12.47
2019-06-11T09:19:11.700Z,12.43
2019-06-11T09:21:44.573Z,11.57
2019-06-11T09:24:12.570Z,13.37
2019-06-11T09:26:44.958Z,11.10
2019-06-11T09:29:13.220Z,11.30
2019-06-11T09:31:45.636Z,15.97
2019-06-11T09:34:13.845Z,12.33
2019-06-11T09:36:44.595Z,12.20
2019-06-11T09:39:14.469Z,13.40
2019-06-11T09:41:44.577Z,11.83
2019-06-11T09:44:15.257Z,10.50
2019-06-11T09:46:46.448Z,18.23
2019-06-11T09:49:15.828Z,10.73
2019-06-11T09:51:45.632Z,11.57
2019-06-11T09:54:15.138Z,13.60
2019-06-11T09:56:46.036Z,12.50
2019-06-11T09:59:15.818Z,12.00
2019-06-11T10:01:46.399Z,13.03
2019-06-11T10:04:16.402Z,11.40
2019-06-11T10:06:45.891Z,11.50
2019-06-11T10:09:15.327Z,16.10
2019-06-11T10:11:51.927Z,10.50
2019-06-11T10:14:15.976Z,16.40
2019-06-11T10:16:46.359Z,12.97
2019-06-11T10:19:15.861Z,15.23
2019-06-11T10:21:45.328Z,10.30
2019-06-11T10:24:14.799Z,14.13
2019-06-11T10:26:45.056Z,11.73
2019-06-11T10:29:14.549Z,15.20
2019-06-11T10:31:43.999Z,13.27
2019-06-11T10:34:14.729Z,10.80
2019-06-11T10:36:44.279Z,12.77
2019-06-11T10:39:14.473Z,14.70
2019-06-11T10:41:53.236Z,11.63
2019-06-11T10:44:15.121Z,15.90
2019-06-11T10:46:44.646Z,11.60
2019-06-11T10:49:14.094Z,12.07
2019-06-11T10:51:44.632Z,11.50
2019-06-11T10:54:14.071Z,10.03
2019-06-11T10:56:44.718Z,14.53
2019-06-11T10:59:14.925Z,12.43
2019-06-11T11:01:45.811Z,13.73
2019-06-11T11:04:15.701Z,16.70
2019-06-11T11:06:46.211Z,12.60
2019-06-11T11:09:15.690Z,11.00
2019-06-11T11:11:46.273Z,9.90
2019-06-11T11:14:16.275Z,12.70
2019-06-11T11:16:45.720Z,12.53
2019-06-11T11:19:15.168Z,13.33
2019-06-11T11:21:45.847Z,10.77
2019-06-11T11:24:15.455Z,12.53
2019-06-11T11:26:46.009Z,10.90
2019-06-11T11:29:15.652Z,14.03
2019-06-11T11:31:46.047Z,14.83
2019-06-11T11:34:15.601Z,10.47
2019-06-11T11:36:46.497Z,11.97
2019-06-11T11:39:16.003Z,12.93
2019-06-11T11:41:46.744Z,8.87
2019-06-11T11:44:16.247Z,9.83
2019-06-11T11:46:49.524Z,10.27
2019-06-11T11:49:23.432Z,15.40
2019-06-11T11:51:55.235Z,12.33
2019-06-11T11:54:30.784Z,9.97
2019-06-11T11:57:02.668Z,12.33
2019-06-11T11:59:34.947Z,15.53
2019-06-11T12:02:06.336Z,13.90
2019-06-11T12:04:36.134Z,9.77
2019-06-11T12:07:05.641Z,10.07
2019-06-11T12:09:35.086Z,12.10
2019-06-11T12:12:04.708Z,13.50
2019-06-11T12:14:34.161Z,11.27
2019-06-11T12:17:03.684Z,10.63
2019-06-11T12:19:33.137Z,9.43
2019-06-11T12:22:02.582Z,11.27
2019-06-11T12:24:33.455Z,11.70
2019-06-11T12:27:03.580Z,9.43
2019-06-11T12:29:33.099Z,10.67
2019-06-11T12:32:08.022Z,9.20
2019-06-11T12:34:33.856Z,9.70
2019-06-11T12:37:03.648Z,11.23
2019-06-11T12:39:33.196Z,15.07
2019-06-11T12:42:05.955Z,11.10
2019-06-11T12:44:33.797Z,12.53
2019-06-11T12:47:05.150Z,11.07
2019-06-11T12:49:34.412Z,13.93
2019-06-11T12:52:04.783Z,10.00
2019-06-11T12:54:34.463Z,10.27
2019-06-11T12:57:05.979Z,13.03
2019-06-11T12:59:35.864Z,12.70
2019-06-11T13:02:05.390Z,11.80
2019-06-11T13:04:34.959Z,10.73
2019-06-11T13:07:05.012Z,10.23
2019-06-11T13:09:34.459Z,11.63
2019-06-11T13:12:04.997Z,10.63
2019-06-11T13:14:36.227Z,10.13
2019-06-11T13:17:09.219Z,11.57
2019-06-11T13:19:37.405Z,15.80
2019-06-11T13:22:07.045Z,13.10
2019-06-11T13:24:36.515Z,16.73
2019-06-11T13:27:06.105Z,12.33
2019-06-11T13:29:35.579Z,11.30
2019-06-11T13:32:07.734Z,11.33
2019-06-11T13:34:36.361Z,9.17
2019-06-11T13:37:05.887Z,13.63
2019-06-11T13:39:35.364Z,13.60
2019-06-11T13:42:14.350Z,11.20
2019-06-11T13:44:39.663Z,13.00
2019-06-11T13:47:07.528Z,12.87
2019-06-11T13:49:37.012Z,14.57
2019-06-11T13:52:07.369Z,12.63
2019-06-11T13:54:37.700Z,13.90
2019-06-11T13:57:07.923Z,11.63
2019-06-11T13:59:37.451Z,10.00
2019-06-11T14:02:07.915Z,10.63
2019-06-11T14:04:37.361Z,16.23
2019-06-11T14:07:07.326Z,12.93
2019-06-11T14:09:36.934Z,11.63
2019-06-11T14:12:07.108Z,8.83
2019-06-11T14:14:36.685Z,12.23
2019-06-11T14:17:07.698Z,10.23
2019-06-11T14:19:37.348Z,16.77
2019-06-11T14:22:06.905Z,11.67
2019-06-11T14:24:36.358Z,11.43
2019-06-11T14:27:07.010Z,13.27
2019-06-11T14:29:36.540Z,10.57
2019-06-11T14:32:06.865Z,13.07
2019-06-11T14:34:36.519Z,9.13
2019-06-11T14:37:07.353Z,12.30
2019-06-11T14:39:36.969Z,10.40
2019-06-11T14:42:08.152Z,9.60
2019-06-11T14:44:43.023Z,10.67
2019-06-11T14:47:12.845Z,10.57
2019-06-11T14:49:43.035Z,12.40
2019-06-11T14:52:12.461Z,18.60
2019-06-11T14:54:41.928Z,9.97
2019-06-11T14:57:12.302Z,10.20
2019-06-11T14:59:45.483Z,9.60
2019-06-11T15:02:13.846Z,10.43
2019-06-11T15:04:43.265Z,10.07
2019-06-11T15:07:14.979Z,12.97
2019-06-11T15:09:44.023Z,11.47
2019-06-11T15:12:16.822Z,10.73
2019-06-11T15:14:54.331Z,8.40
2019-06-11T15:17:15.812Z,12.87
2019-06-11T15:20:00.466Z,11.63
2019-06-11T15:22:18.346Z,10.17
2019-06-11T15:24:47.585Z,12.50
2019-06-11T15:27:17.030Z,8.90
2019-06-11T15:30:16.613Z,14.13
2019-06-11T15:32:40.249Z,11.90
2019-06-11T15:35:15.411Z,12.40
2019-06-11T15:37:41.035Z,14.90
2019-06-11T15:40:15.860Z,10.00
2019-06-11T15:42:42.480Z,10.20
2019-06-11T15:45:32.724Z,11.40
2019-06-11T15:47:44.950Z,12.50
2019-06-11T15:50:15.109Z,9.80
2019-06-11T15:52:46.261Z,11.03
2019-06-11T15:55:15.938Z,9.33
2019-06-11T15:57:45.380Z,11.10
2019-06-11T16:00:15.386Z,11.80
2019-06-11T16:02:44.812Z,11.10
2019-06-11T16:05:14.439Z,10.00
2019-06-11T16:07:43.960Z,13.03
2019-06-11T16:10:15.220Z,12.87
2019-06-11T16:12:44.812Z,10.60
2019-06-11T16:15:26.150Z,10.43
2019-06-11T16:17:45.746Z,14.93
2019-06-11T16:20:18.837Z,15.40
2019-06-11T16:22:50.698Z,11.80
2019-06-11T16:25:23.142Z,12.97
2019-06-11T16:27:52.578Z,11.90
2019-06-11T16:30:22.473Z,11.60
2019-06-11T16:32:51.948Z,10.90
2019-06-11T16:35:21.351Z,9.43
2019-06-11T16:37:51.145Z,11.40
2019-06-11T16:40:22.056Z,13.50
2019-06-11T16:42:51.894Z,11.03
2019-06-11T16:45:21.836Z,10.90
2019-06-11T16:47:51.293Z,13.53
2019-06-11T16:50:23.101Z,12.37
2019-06-11T16:52:52.248Z,11.17
2019-06-11T16:55:22.152Z,15.17
2019-06-11T16:57:51.598Z,12.33
2019-06-11T17:00:28.967Z,9.53
2019-06-11T17:02:53.225Z,8.93
2019-06-11T17:05:26.315Z,8.90
2019-06-11T17:07:53.853Z,10.20
2019-06-11T17:10:23.648Z,11.13
2019-06-11T17:12:53.204Z,9.47
2019-06-11T17:15:23.531Z,11.97
2019-06-11T17:17:54.264Z,11.50
2019-06-11T17:20:24.246Z,11.10
2019-06-11T17:22:53.716Z,12.40
2019-06-11T17:25:26.791Z,15.80
2019-06-11T17:27:55.408Z,12.30
2019-06-11T17:30:25.076Z,9.70
2019-06-11T17:32:54.538Z,10.10
2019-06-11T17:35:23.974Z,8.97
2019-06-11T17:37:53.422Z,10.60
2019-06-11T17:40:26.724Z,10.60
2019-06-11T17:42:54.043Z,21.47
2019-06-11T17:45:29.927Z,9.80
2019-06-11T17:47:54.737Z,8.60
2019-06-11T17:50:30.419Z,13.00
2019-06-11T17:52:55.618Z,11.03
2019-06-11T17:55:25.062Z,9.30
2019-06-11T17:57:54.502Z,10.00
2019-06-11T18:00:36.884Z,8.83
2019-06-11T18:03:10.509Z,13.33
2019-06-11T18:05:42.136Z,13.20
2019-06-11T18:08:11.505Z,10.43
2019-06-11T18:10:41.490Z,12.40
2019-06-11T18:13:11.173Z,9.80
2019-06-11T18:15:41.044Z,8.60
2019-06-11T18:18:11.171Z,10.17
2019-06-11T18:20:41.294Z,12.50
2019-06-11T18:23:12.286Z,15.63
2019-06-11T18:25:41.969Z,9.60
2019-06-11T18:28:11.428Z,10.37
2019-06-11T18:30:41.584Z,9.67
2019-06-11T18:33:11.624Z,11.77
2019-06-11T18:35:41.033Z,9.73
2019-06-11T18:38:10.528Z,12.30
2019-06-11T18:40:40.973Z,9.73
2019-06-11T18:43:10.818Z,10.40
2019-06-11T18:45:40.975Z,11.00
2019-06-11T18:48:10.550Z,11.60
2019-06-11T18:50:40.540Z,12.77
2019-06-11T18:53:10.640Z,10.07
2019-06-11T18:55:41.209Z,12.53
2019-06-11T18:58:12.588Z,14.50
2019-06-11T19:00:42.035Z,8.87
2019-06-11T19:03:11.848Z,11.00
2019-06-11T19:05:41.402Z,10.00
2019-06-11T19:08:11.859Z,10.23
2019-06-11T19:10:41.526Z,14.00
2019-06-11T19:13:11.565Z,11.57
2019-06-11T19:15:41.311Z,9.90
2019-06-11T19:18:10.879Z,10.07
2019-06-11T19:20:40.554Z,11.80
2019-06-11T19:23:11.204Z,11.03
2019-06-11T19:25:43.326Z,12.43
2019-06-11T19:28:14.492Z,13.90
2019-06-11T19:30:44.095Z,12.63
2019-06-11T19:33:13.584Z,15.07
2019-06-11T19:35:43.043Z,9.53
2019-06-11T19:38:12.533Z,10.60
2019-06-11T19:40:42.292Z,10.00
2019-06-11T19:43:11.825Z,10.40
2019-06-11T19:45:43.204Z,16.00
2019-06-11T19:48:12.463Z,9.33
2019-06-11T19:50:41.963Z,11.00
2019-06-11T19:53:11.386Z,13.27
2019-06-11T19:55:41.266Z,12.07
2019-06-11T19:58:11.380Z,11.17
2019-06-11T20:00:41.760Z,12.23
2019-06-11T20:03:11.494Z,11.67
2019-06-11T20:05:40.947Z,17.53
2019-06-11T20:08:10.831Z,14.27
2019-06-11T20:10:45.193Z,10.40
2019-06-11T20:13:11.492Z,12.60
2019-06-11T20:15:41.063Z,10.80
2019-06-11T20:18:10.908Z,11.67
2019-06-11T20:20:40.913Z,9.20
2019-06-11T20:23:10.536Z,9.40
2019-06-11T20:25:42.184Z,12.10
2019-06-11T20:28:11.148Z,10.97
2019-06-11T20:30:40.900Z,8.13
2019-06-11T20:33:11.022Z,9.80
2019-06-11T20:35:41.648Z,11.57
2019-06-11T20:38:11.411Z,10.70
2019-06-11T20:40:42.310Z,11.70
2019-06-11T20:43:12.124Z,9.93
2019-06-11T20:45:44.320Z,10.30
2019-06-11T20:48:22.357Z,9.73
2019-06-11T20:50:43.908Z,10.37
2019-06-11T20:53:13.389Z,10.30
2019-06-11T20:55:43.344Z,10.47
2019-06-11T20:58:12.841Z,12.83
2019-06-11T21:00:44.560Z,13.30
2019-06-11T21:03:13.480Z,9.57
2019-06-11T21:05:43.816Z,11.53
2019-06-11T21:08:13.544Z,11.40
2019-06-11T21:10:43.789Z,12.27
2019-06-11T21:13:13.493Z,10.23
2019-06-11T21:15:47.702Z,10.60
2019-06-11T21:18:30.531Z,10.57
2019-06-11T21:21:01.923Z,13.20
2019-06-11T21:23:32.931Z,11.13
2019-06-11T21:26:02.493Z,10.37
2019-06-11T21:28:32.817Z,13.93
2019-06-11T21:31:02.550Z,11.10
2019-06-11T21:33:32.008Z,10.67
2019-06-11T21:36:01.459Z,12.80
2019-06-11T21:38:30.934Z,17.13
2019-06-11T21:41:02.822Z,13.90
2019-06-11T21:43:32.277Z,11.73
2019-06-11T21:46:01.732Z,14.00
2019-06-11T21:48:39.068Z,12.33
2019-06-11T21:51:02.362Z,12.90
2019-06-11T21:53:31.837Z,14.40
2019-06-11T21:56:01.457Z,10.37
2019-06-11T21:58:31.172Z,12.13
2019-06-11T22:01:02.848Z,11.77
2019-06-11T22:03:32.489Z,10.50
2019-06-11T22:06:01.962Z,10.73
2019-06-11T22:08:31.412Z,12.07
2019-06-11T22:11:00.858Z,11.40
2019-06-11T22:13:30.684Z,12.63
2019-06-11T22:16:00.739Z,10.27
2019-06-11T22:18:32.145Z,10.90
2019-06-11T22:21:01.626Z,10.20
2019-06-11T22:23:31.092Z,13.50
2019-06-11T22:26:00.722Z,11.47
2019-06-11T22:28:30.362Z,12.33
2019-06-11T22:31:01.504Z,10.57
2019-06-11T22:33:31.182Z,11.60
2019-06-11T22:36:20.333Z,11.17
2019-06-11T22:38:51.419Z,11.60
2019-06-11T22:41:21.131Z,14.77
2019-06-11T22:43:52.766Z,12.50
2019-06-11T22:46:21.782Z,10.73
2019-06-11T22:48:51.232Z,12.47
2019-06-11T22:51:20.719Z,11.67
2019-06-11T22:53:52.735Z,12.27
2019-06-11T22:56:21.486Z,13.00
2019-06-11T22:58:52.252Z,11.70
2019-06-11T23:01:21.875Z,11.87
2019-06-11T23:03:53.578Z,11.80
2019-06-11T23:06:22.523Z,11.93
2019-06-11T23:08:52.738Z,13.40
2019-06-11T23:11:22.282Z,12.30
2019-06-11T23:13:52.919Z,12.27
2019-06-11T23:16:22.644Z,12.20
2019-06-11T23:18:52.087Z,11.23
2019-06-11T23:21:21.582Z,12.60
2019-06-11T23:23:51.127Z,12.30
2019-06-11T23:26:20.830Z,11.57
2019-06-11T23:28:53.399Z,11.43
2019-06-11T23:31:21.605Z,12.20
2019-06-11T23:33:53.496Z,12.20
2019-06-11T23:36:22.258Z,12.17
2019-06-11T23:38:53.897Z,12.23
2019-06-11T23:41:22.868Z,10.93
2019-06-11T23:43:53.162Z,12.80
2019-06-11T23:46:22.727Z,12.43
2019-06-11T23:48:54.998Z,11.23
2019-06-11T23:51:23.377Z,14.97
2019-06-11T23:53:54.761Z,11.87
2019-06-11T23:56:24.011Z,12.90
2019-06-11T23:58:53.635Z,11.10
